createdAt,value
2017-07-23T00:01:23.356Z,96885.63
2017-07-23T00:06:10.037Z,96886.88
2017-07-23T00:10:56.682Z,96896.27
2017-07-23T00:15:43.288Z,96888.60
2017-07-23T00:20:30.043Z,96885.77
2017-07-23T00:25:16.658Z,96868.04
2017-07-23T00:30:03.297Z,96873.27
2017-07-23T00:34:49.920Z,96866.89
2017-07-23T00:39:36.841Z,96864.33
2017-07-23T00:44:23.438Z,96854.17
2017-07-23T00:49:10.081Z,96860.08
2017-07-23T00:53:56.775Z,96861.95
2017-07-23T00:58:43.605Z,96855.69
2017-07-23T01:03:30.242Z,96862.38
2017-07-23T01:08:16.849Z,96862.47
2017-07-23T01:13:03.470Z,96861.06
2017-07-23T01:17:50.093Z,96855.72
2017-07-23T01:22:37.008Z,96858.61
2017-07-23T01:27:23.644Z,96887.59
2017-07-23T01:32:10.366Z,96915.79
2017-07-23T01:36:57.304Z,96981.02
2017-07-23T01:41:43.919Z,97016.58
2017-07-23T01:46:30.548Z,97045.14
2017-07-23T01:51:17.299Z,97077.69
2017-07-23T01:56:04.772Z,97092.74
2017-07-23T02:00:51.398Z,97097.94
2017-07-23T02:05:38.198Z,97104.33
2017-07-23T02:10:25.171Z,97113.63
2017-07-23T02:15:11.910Z,97120.42
2017-07-23T02:19:58.541Z,97137.41
2017-07-23T02:24:45.169Z,97131.95
2017-07-23T02:29:31.866Z,97138.98
2017-07-23T02:34:19.796Z,97134.43
2017-07-23T02:39:06.414Z,97140.52
2017-07-23T02:43:53.140Z,97143.45
2017-07-23T02:48:39.871Z,97128.09
2017-07-23T02:53:26.687Z,97138.51
2017-07-23T02:58:20.477Z,97139.77
2017-07-23T03:03:07.059Z,97151.99
2017-07-23T03:07:53.684Z,97152.78
2017-07-23T03:12:40.308Z,97161.02
2017-07-23T03:17:27.155Z,97165.14
2017-07-23T03:22:13.771Z,97178.77
2017-07-23T03:27:00.806Z,97178.48
2017-07-23T03:31:47.613Z,97176.56
2017-07-23T03:36:34.282Z,97179.27
2017-07-23T03:41:21.669Z,97175.69
2017-07-23T03:46:08.833Z,97177.69
2017-07-23T03:50:55.511Z,97164.46
2017-07-23T03:55:42.265Z,97156.16
2017-07-23T04:00:29.675Z,97129.03
2017-07-23T04:05:16.306Z,97111.16
2017-07-23T04:10:03.281Z,97145.13
2017-07-23T04:14:50.895Z,97165.13
2017-07-23T04:19:37.530Z,97158.02
2017-07-23T04:24:24.140Z,97163.61
2017-07-23T04:29:10.801Z,97192.81
2017-07-23T04:33:58.199Z,97188.91
2017-07-23T04:38:45.119Z,97169.98
2017-07-23T04:43:31.896Z,97153.62
2017-07-23T04:48:18.653Z,97156.70
2017-07-23T04:53:05.285Z,97157.47
2017-07-23T04:57:52.111Z,97156.22
2017-07-23T05:02:39.158Z,97157.80
2017-07-23T05:07:25.769Z,97164.23
2017-07-23T05:12:12.484Z,97177.09
2017-07-23T05:16:59.132Z,97183.00
2017-07-23T05:21:46.651Z,97176.61
2017-07-23T05:26:33.296Z,97186.34
2017-07-23T05:31:20.713Z,97174.92
2017-07-23T05:36:07.749Z,97192.59
2017-07-23T05:40:54.355Z,97178.31
2017-07-23T05:45:41.189Z,97186.55
2017-07-23T05:50:27.885Z,97190.56
2017-07-23T05:55:14.517Z,97196.58
2017-07-23T06:00:01.750Z,97208.53
2017-07-23T06:04:48.487Z,97198.52
2017-07-23T06:09:35.290Z,97185.77
2017-07-23T06:14:21.985Z,97202.82
2017-07-23T06:19:08.703Z,97197.34
2017-07-23T06:23:55.353Z,97189.42
2017-07-23T06:28:42.056Z,97210.13
2017-07-23T06:33:29.020Z,97212.05
2017-07-23T06:38:15.617Z,97212.63
2017-07-23T06:43:02.235Z,97205.37
2017-07-23T06:47:48.841Z,97212.02
2017-07-23T06:52:35.455Z,97214.09
2017-07-23T06:57:22.097Z,97212.72
2017-07-23T07:02:09.252Z,97211.53
2017-07-23T07:06:55.905Z,97214.49
2017-07-23T07:11:43.308Z,97206.97
2017-07-23T07:16:29.940Z,97212.21
2017-07-23T07:21:16.558Z,97212.39
2017-07-23T07:26:03.249Z,97207.61
2017-07-23T07:30:50.311Z,97196.31
2017-07-23T07:35:36.931Z,97196.24
2017-07-23T07:40:23.621Z,97184.98
2017-07-23T07:45:10.328Z,97179.70
2017-07-23T07:49:57.070Z,97184.66
2017-07-23T07:54:43.808Z,97175.38
2017-07-23T07:59:30.588Z,97173.63
2017-07-23T08:04:17.217Z,97175.11
2017-07-23T08:09:03.908Z,97182.15
2017-07-23T08:13:50.527Z,97181.25
2017-07-23T08:18:37.945Z,97180.59
2017-07-23T08:23:24.756Z,97172.25
2017-07-23T08:28:11.437Z,97190.48
2017-07-23T08:32:58.403Z,97193.55
2017-07-23T08:37:45.044Z,97193.09
2017-07-23T08:42:32.454Z,97182.78
2017-07-23T08:47:19.181Z,97192.98
2017-07-23T08:52:06.120Z,97202.13
2017-07-23T08:56:52.760Z,97197.36
2017-07-23T09:01:40.169Z,97198.70
2017-07-23T09:06:27.206Z,97199.36
2017-07-23T09:11:13.828Z,97195.97
2017-07-23T09:16:00.522Z,97190.73
2017-07-23T09:20:47.205Z,97194.70
2017-07-23T09:25:33.831Z,97197.61
2017-07-23T09:30:20.538Z,97200.84
2017-07-23T09:35:07.956Z,97197.61
2017-07-23T09:39:54.897Z,97192.97
2017-07-23T09:44:42.260Z,97199.98
2017-07-23T09:49:28.928Z,97196.27
2017-07-23T09:54:15.616Z,97198.38
2017-07-23T09:59:02.321Z,97199.02
2017-07-23T10:03:49.398Z,97200.45
2017-07-23T10:08:36.934Z,97205.67
2017-07-23T10:13:30.710Z,97205.97
2017-07-23T10:18:17.472Z,97205.55
2017-07-23T10:23:04.234Z,97203.34
2017-07-23T10:27:50.878Z,97209.63
2017-07-23T10:32:37.545Z,97199.98
2017-07-23T10:37:24.896Z,97199.94
2017-07-23T10:42:11.532Z,97203.59
2017-07-23T10:46:58.343Z,97216.18
2017-07-23T10:51:45.074Z,97228.72
2017-07-23T10:56:31.823Z,97226.48
2017-07-23T11:01:18.450Z,97215.19
2017-07-23T11:06:05.175Z,97215.06
2017-07-23T11:10:51.833Z,97200.56
2017-07-23T11:15:39.279Z,97198.88
2017-07-23T11:20:26.073Z,97203.58
2017-07-23T11:25:12.942Z,97194.89
2017-07-23T11:29:59.620Z,97189.88
2017-07-23T11:34:46.254Z,97182.66
2017-07-23T11:39:33.678Z,97176.30
2017-07-23T11:44:27.325Z,97169.73
2017-07-23T11:49:13.957Z,97170.85
2017-07-23T11:54:00.591Z,97161.19
2017-07-23T11:58:47.192Z,97159.28
2017-07-23T12:03:33.849Z,97168.47
2017-07-23T12:08:27.528Z,97158.02
2017-07-23T12:13:14.154Z,97155.81
2017-07-23T12:18:00.827Z,97162.91
2017-07-23T12:22:47.471Z,97158.69
2017-07-23T12:27:34.125Z,97151.80
2017-07-23T12:32:21.528Z,97154.31
2017-07-23T12:37:08.144Z,97156.41
2017-07-23T12:41:54.766Z,97151.51
2017-07-23T12:46:41.421Z,97156.84
2017-07-23T12:51:28.779Z,97158.60
2017-07-23T12:56:15.421Z,97167.64
2017-07-23T13:01:02.045Z,97164.42
2017-07-23T13:05:48.793Z,97171.71
2017-07-23T13:10:35.693Z,97171.95
2017-07-23T13:15:22.321Z,97163.05
2017-07-23T13:20:09.097Z,97160.31
2017-07-23T13:24:56.446Z,97158.91
2017-07-23T13:29:43.812Z,97151.30
2017-07-23T13:34:30.458Z,97137.76
2017-07-23T13:39:17.295Z,97137.31
2017-07-23T13:44:05.519Z,97133.43
2017-07-23T13:48:52.364Z,97129.64
2017-07-23T13:53:39.036Z,97123.99
2017-07-23T13:58:25.911Z,97116.48
2017-07-23T14:03:12.601Z,97110.08
2017-07-23T14:07:59.305Z,97104.67
2017-07-23T14:12:46.064Z,97102.11
2017-07-23T14:17:39.762Z,97101.40
2017-07-23T14:22:26.372Z,97103.24
2017-07-23T14:27:13.105Z,97097.87
2017-07-23T14:31:59.737Z,97084.02
2017-07-23T14:36:46.380Z,97069.17
2017-07-23T14:41:33.054Z,97059.97
2017-07-23T14:46:19.698Z,97053.32
2017-07-23T14:51:06.611Z,97050.50
2017-07-23T14:55:53.272Z,97035.21
2017-07-23T15:00:40.713Z,97028.48
2017-07-23T15:05:28.102Z,97040.15
2017-07-23T15:10:14.749Z,97039.94
2017-07-23T15:15:01.492Z,97048.58
2017-07-23T15:19:48.100Z,97033.81
2017-07-23T15:24:35.489Z,97037.55
2017-07-23T15:29:22.158Z,97040.33
2017-07-23T15:34:08.896Z,97036.37
2017-07-23T15:38:56.086Z,97043.66
2017-07-23T15:43:42.687Z,97052.10
2017-07-23T15:48:29.309Z,97046.42
2017-07-23T15:53:16.022Z,97047.33
2017-07-23T15:58:02.671Z,97050.83
2017-07-23T16:02:49.292Z,97046.75
2017-07-23T16:07:35.949Z,97048.13
2017-07-23T16:12:23.332Z,97042.34
2017-07-23T16:17:10.011Z,97031.09
2017-07-23T16:21:57.085Z,97030.80
2017-07-23T16:26:43.733Z,97032.70
2017-07-23T16:31:30.390Z,97035.70
2017-07-23T16:36:17.074Z,97034.02
2017-07-23T16:41:03.737Z,97033.11
2017-07-23T16:45:50.414Z,97028.00
2017-07-23T16:50:37.458Z,97028.13
2017-07-23T16:55:24.854Z,97031.17
2017-07-23T17:00:11.694Z,97036.84
2017-07-23T17:04:58.399Z,97044.98
2017-07-23T17:09:45.105Z,97045.90
2017-07-23T17:14:31.781Z,97039.96
2017-07-23T17:19:19.207Z,97044.02
2017-07-23T17:24:06.021Z,97044.77
2017-07-23T17:28:52.686Z,97042.99
2017-07-23T17:33:39.393Z,97037.77
2017-07-23T17:38:27.241Z,97043.63
2017-07-23T17:43:14.701Z,97040.77
2017-07-23T17:48:01.351Z,97046.36
2017-07-23T17:52:48.095Z,97060.19
2017-07-23T17:57:34.786Z,97059.40
2017-07-23T18:02:21.465Z,97061.09
2017-07-23T18:07:08.938Z,97067.48
2017-07-23T18:11:55.655Z,97066.10
2017-07-23T18:16:42.831Z,97062.94
2017-07-23T18:21:29.553Z,97058.50
2017-07-23T18:26:16.378Z,97057.09
2017-07-23T18:31:03.114Z,97058.69
2017-07-23T18:35:49.900Z,97054.95
2017-07-23T18:40:36.822Z,97055.20
2017-07-23T18:45:23.919Z,97060.14
2017-07-23T18:50:11.397Z,97057.38
2017-07-23T18:54:58.341Z,97063.83
2017-07-23T18:59:45.161Z,97069.19
2017-07-23T19:04:31.922Z,97073.00
2017-07-23T19:09:18.845Z,97082.30
2017-07-23T19:14:05.586Z,97080.92
2017-07-23T19:18:53.189Z,97092.19
2017-07-23T19:23:40.385Z,97089.42
2017-07-23T19:28:27.432Z,97098.30
2017-07-23T19:33:14.135Z,97102.31
2017-07-23T19:38:01.773Z,97107.73
2017-07-23T19:42:48.592Z,97123.93
2017-07-23T19:47:35.370Z,97136.72
2017-07-23T19:52:22.535Z,97140.31
2017-07-23T19:57:09.937Z,97141.09
2017-07-23T20:01:56.722Z,97118.02
2017-07-23T20:06:43.427Z,97127.67
2017-07-23T20:11:30.934Z,97119.08
2017-07-23T20:16:17.663Z,97121.19
2017-07-23T20:21:05.037Z,97116.68
2017-07-23T20:25:51.765Z,97117.32
2017-07-23T20:30:38.605Z,97112.55
2017-07-23T20:35:25.357Z,97119.76
2017-07-23T20:40:12.100Z,97109.73
2017-07-23T20:44:59.014Z,97106.95
2017-07-23T20:49:45.831Z,97104.20
2017-07-23T20:54:32.593Z,97100.58
2017-07-23T20:59:20.392Z,97101.09
2017-07-23T21:04:07.050Z,97103.03
2017-07-23T21:08:54.709Z,97105.16
2017-07-23T21:13:41.394Z,97108.95
2017-07-23T21:18:28.046Z,97104.91
2017-07-23T21:23:15.502Z,97126.55
2017-07-23T21:28:02.125Z,97140.62
2017-07-23T21:32:48.821Z,97145.73
2017-07-23T21:37:36.271Z,97138.80
2017-07-23T21:42:23.259Z,97129.47
2017-07-23T21:47:09.849Z,97123.09
2017-07-23T21:51:56.443Z,97105.94
2017-07-23T21:56:43.069Z,97085.73
2017-07-23T22:01:29.694Z,97080.67
2017-07-23T22:06:16.314Z,97077.62
2017-07-23T22:11:02.935Z,97074.36
2017-07-23T22:15:49.551Z,97074.52
2017-07-23T22:20:36.208Z,97083.17
2017-07-23T22:25:23.066Z,97078.78
2017-07-23T22:30:10.803Z,97069.24
2017-07-23T22:34:57.439Z,97038.98
2017-07-23T22:39:44.073Z,97035.58
2017-07-23T22:44:30.732Z,97028.81
2017-07-23T22:49:17.462Z,97034.59
2017-07-23T22:54:04.195Z,97021.34
2017-07-23T22:58:51.536Z,97018.20
2017-07-23T23:03:38.132Z,97001.36
2017-07-23T23:08:24.775Z,97009.42
2017-07-23T23:13:11.407Z,97019.67
2017-07-23T23:17:58.025Z,97014.99
2017-07-23T23:22:45.130Z,97011.42
2017-07-23T23:27:31.776Z,97004.81
2017-07-23T23:32:18.588Z,97010.75
2017-07-23T23:37:05.245Z,97003.75
2017-07-23T23:41:52.614Z,96990.67
2017-07-23T23:46:39.271Z,96974.14
2017-07-23T23:51:25.976Z,96974.64
2017-07-23T23:56:12.925Z,96953.93
